sensor_id;sensor_type;location;lat;lon;timestamp;temperature;humidity
12959;DHT22;6544;51.666;6.634;2023-02-01T00:02:20;5.90;99.90
12959;DHT22;6544;51.666;6.634;2023-02-01T00:04:48;5.90;99.90
12959;DHT22;6544;51.666;6.634;2023-02-01T00:07:15;5.80;99.90
12959;DHT22;6544;51.666;6.634;2023-02-01T00:09:42;5.90;99.90
12959;DHT22;6544;51.666;6.634;2023-02-01T00:12:09;5.90;99.90
12959;DHT22;6544;51.666;6.634;2023-02-01T00:14:36;5.70;99.90
12959;DHT22;6544;51.666;6.634;2023-02-01T00:17:04;5.70;99.90
12959;DHT22;6544;51.666;6.634;2023-02-01T00:19:32;5.70;99.90
12959;DHT22;6544;51.666;6.634;2023-02-01T00:22:01;5.80;99.90
12959;DHT22;6544;51.666;6.634;2023-02-01T00:24:28;5.80;99.90
12959;DHT22;6544;51.666;6.634;2023-02-01T00:26:55;5.80;99.90
12959;DHT22;6544;51.666;6.634;2023-02-01T00:29:22;5.80;99.90
12959;DHT22;6544;51.666;6.634;2023-02-01T00:31:50;5.80;99.90
12959;DHT22;6544;51.666;6.634;2023-02-01T00:34:18;5.70;99.90
12959;DHT22;6544;51.666;6.634;2023-02-01T00:36:46;5.70;99.90
12959;DHT22;6544;51.666;6.634;2023-02-01T00:39:14;5.70;99.90
12959;DHT22;6544;51.666;6.634;2023-02-01T00:41:42;5.60;99.90
12959;DHT22;6544;51.666;6.634;2023-02-01T00:44:09;5.70;99.90
12959;DHT22;6544;51.666;6.634;2023-02-01T00:46:36;5.70;99.90
12959;DHT22;6544;51.666;6.634;2023-02-01T00:49:03;5.70;92.70
12959;DHT22;6544;51.666;6.634;2023-02-01T00:51:31;5.70;99.90
12959;DHT22;6544;51.666;6.634;2023-02-01T00:53:58;5.70;99.90
12959;DHT22;6544;51.666;6.634;2023-02-01T00:56:26;5.70;94.20
12959;DHT22;6544;51.666;6.634;2023-02-01T00:58:54;5.70;95.70
12959;DHT22;6544;51.666;6.634;2023-02-01T01:01:22;5.70;80.70
12959;DHT22;6544;51.666;6.634;2023-02-01T01:03:52;5.70;95.00
12959;DHT22;6544;51.666;6.634;2023-02-01T01:06:20;5.80;99.90
12959;DHT22;6544;51.666;6.634;2023-02-01T01:08:49;5.70;88.00
12959;DHT22;6544;51.666;6.634;2023-02-01T01:11:18;5.70;99.90
12959;DHT22;6544;51.666;6.634;2023-02-01T01:13:48;5.80;99.90
12959;DHT22;6544;51.666;6.634;2023-02-01T01:16:15;5.80;74.30
12959;DHT22;6544;51.666;6.634;2023-02-01T01:18:42;5.80;82.30
12959;DHT22;6544;51.666;6.634;2023-02-01T01:21:11;5.70;67.40
12959;DHT22;6544;51.666;6.634;2023-02-01T01:23:39;5.80;99.90
12959;DHT22;6544;51.666;6.634;2023-02-01T01:26:07;5.80;98.50
12959;DHT22;6544;51.666;6.634;2023-02-01T01:28:35;5.80;97.00
12959;DHT22;6544;51.666;6.634;2023-02-01T01:31:03;5.70;99.90
12959;DHT22;6544;51.666;6.634;2023-02-01T01:33:30;5.70;99.90
12959;DHT22;6544;51.666;6.634;2023-02-01T01:35:57;5.70;99.90
12959;DHT22;6544;51.666;6.634;2023-02-01T01:38:24;5.80;97.50
12959;DHT22;6544;51.666;6.634;2023-02-01T01:40:51;5.80;99.90
12959;DHT22;6544;51.666;6.634;2023-02-01T01:43:19;5.80;99.90
12959;DHT22;6544;51.666;6.634;2023-02-01T01:45:48;5.80;99.90
12959;DHT22;6544;51.666;6.634;2023-02-01T01:48:20;5.80;62.50
12959;DHT22;6544;51.666;6.634;2023-02-01T01:50:54;5.80;95.90
12959;DHT22;6544;51.666;6.634;2023-02-01T01:53:25;5.80;52.70
12959;DHT22;6544;51.666;6.634;2023-02-01T01:55:54;5.80;87.90
12959;DHT22;6544;51.666;6.634;2023-02-01T01:58:26;5.80;83.60
12959;DHT22;6544;51.666;6.634;2023-02-01T02:00:55;5.90;75.90
12959;DHT22;6544;51.666;6.634;2023-02-01T02:03:26;5.90;59.60
12959;DHT22;6544;51.666;6.634;2023-02-01T02:05:56;6.00;38.10
12959;DHT22;6544;51.666;6.634;2023-02-01T02:08:25;6.00;14.00
12959;DHT22;6544;51.666;6.634;2023-02-01T02:10:53;6.10;1.00
12959;DHT22;6544;51.666;6.634;2023-02-01T02:13:27;6.10;10.70
12959;DHT22;6544;51.666;6.634;2023-02-01T02:16:08;6.00;2.00
12959;DHT22;6544;51.666;6.634;2023-02-01T02:18:44;6.10;7.90
12959;DHT22;6544;51.666;6.634;2023-02-01T02:21:17;6.10;1.00
12959;DHT22;6544;51.666;6.634;2023-02-01T02:27:17;6.10;1.00
12959;DHT22;6544;51.666;6.634;2023-02-01T02:30:20;5.90;19.70
12959;DHT22;6544;51.666;6.634;2023-02-01T02:36:01;6.00;1.00
12959;DHT22;6544;51.666;6.634;2023-02-01T02:38:32;6.00;17.30
12959;DHT22;6544;51.666;6.634;2023-02-01T02:41:09;6.00;1.00
12959;DHT22;6544;51.666;6.634;2023-02-01T02:44:04;6.00;1.00
12959;DHT22;6544;51.666;6.634;2023-02-01T02:46:54;5.90;1.00
12959;DHT22;6544;51.666;6.634;2023-02-01T02:49:49;6.00;1.00
12959;DHT22;6544;51.666;6.634;2023-02-01T02:52:44;6.00;1.00
12959;DHT22;6544;51.666;6.634;2023-02-01T02:55:31;6.10;1.00
12959;DHT22;6544;51.666;6.634;2023-02-01T02:58:03;6.10;1.00
12959;DHT22;6544;51.666;6.634;2023-02-01T03:00:48;6.00;1.00
12959;DHT22;6544;51.666;6.634;2023-02-01T03:03:36;6.00;1.00
12959;DHT22;6544;51.666;6.634;2023-02-01T03:06:23;6.00;1.00
12959;DHT22;6544;51.666;6.634;2023-02-01T03:08:52;6.00;1.00
12959;DHT22;6544;51.666;6.634;2023-02-01T03:11:23;5.90;1.00
12959;DHT22;6544;51.666;6.634;2023-02-01T03:14:14;5.90;1.00
12959;DHT22;6544;51.666;6.634;2023-02-01T03:16:45;5.90;1.00
12959;DHT22;6544;51.666;6.634;2023-02-01T03:19:16;5.90;1.00
12959;DHT22;6544;51.666;6.634;2023-02-01T03:21:48;5.80;1.00
12959;DHT22;6544;51.666;6.634;2023-02-01T03:24:20;5.90;1.00
12959;DHT22;6544;51.666;6.634;2023-02-01T03:27:02;5.80;1.00
12959;DHT22;6544;51.666;6.634;2023-02-01T03:29:37;5.80;1.00
12959;DHT22;6544;51.666;6.634;2023-02-01T03:32:04;5.70;1.00
12959;DHT22;6544;51.666;6.634;2023-02-01T03:34:32;5.60;1.00
12959;DHT22;6544;51.666;6.634;2023-02-01T03:37:02;5.70;1.00
12959;DHT22;6544;51.666;6.634;2023-02-01T03:39:36;5.70;1.00
12959;DHT22;6544;51.666;6.634;2023-02-01T03:42:07;5.60;1.00
12959;DHT22;6544;51.666;6.634;2023-02-01T03:44:40;5.70;1.00
12959;DHT22;6544;51.666;6.634;2023-02-01T03:47:12;5.60;1.00
12959;DHT22;6544;51.666;6.634;2023-02-01T03:49:42;5.60;1.00
12959;DHT22;6544;51.666;6.634;2023-02-01T03:52:13;5.60;8.70
12959;DHT22;6544;51.666;6.634;2023-02-01T03:54:43;5.60;11.60
12959;DHT22;6544;51.666;6.634;2023-02-01T03:57:12;5.60;21.90
12959;DHT22;6544;51.666;6.634;2023-02-01T03:59:40;5.60;13.30
12959;DHT22;6544;51.666;6.634;2023-02-01T04:02:07;5.60;36.10
12959;DHT22;6544;51.666;6.634;2023-02-01T04:04:35;5.50;54.30
12959;DHT22;6544;51.666;6.634;2023-02-01T04:07:03;5.60;38.70
12959;DHT22;6544;51.666;6.634;2023-02-01T04:09:30;5.50;80.60
12959;DHT22;6544;51.666;6.634;2023-02-01T04:11:58;5.40;99.90
12959;DHT22;6544;51.666;6.634;2023-02-01T04:14:25;5.50;99.90
12959;DHT22;6544;51.666;6.634;2023-02-01T04:16:52;5.60;99.90
12959;DHT22;6544;51.666;6.634;2023-02-01T04:19:19;5.60;99.90
12959;DHT22;6544;51.666;6.634;2023-02-01T04:21:46;5.60;99.90
12959;DHT22;6544;51.666;6.634;2023-02-01T04:24:13;5.60;99.90
12959;DHT22;6544;51.666;6.634;2023-02-01T04:26:40;5.70;99.90
12959;DHT22;6544;51.666;6.634;2023-02-01T04:29:09;5.70;99.90
12959;DHT22;6544;51.666;6.634;2023-02-01T04:31:36;5.70;99.90
12959;DHT22;6544;51.666;6.634;2023-02-01T04:34:02;5.80;99.90
12959;DHT22;6544;51.666;6.634;2023-02-01T04:36:29;5.80;99.90
12959;DHT22;6544;51.666;6.634;2023-02-01T04:38:56;5.80;99.90
12959;DHT22;6544;51.666;6.634;2023-02-01T04:41:23;5.80;99.90
12959;DHT22;6544;51.666;6.634;2023-02-01T04:43:51;5.90;99.90
12959;DHT22;6544;51.666;6.634;2023-02-01T04:46:19;5.90;99.90
12959;DHT22;6544;51.666;6.634;2023-02-01T04:48:46;5.90;99.90
12959;DHT22;6544;51.666;6.634;2023-02-01T04:51:13;5.90;99.90
12959;DHT22;6544;51.666;6.634;2023-02-01T04:53:40;5.90;99.90
12959;DHT22;6544;51.666;6.634;2023-02-01T04:56:07;5.80;99.90
12959;DHT22;6544;51.666;6.634;2023-02-01T04:58:34;5.90;99.90
12959;DHT22;6544;51.666;6.634;2023-02-01T05:01:02;5.80;99.90
12959;DHT22;6544;51.666;6.634;2023-02-01T05:03:31;5.90;99.90
12959;DHT22;6544;51.666;6.634;2023-02-01T05:05:58;5.90;99.90
12959;DHT22;6544;51.666;6.634;2023-02-01T05:08:25;5.70;99.90
12959;DHT22;6544;51.666;6.634;2023-02-01T05:10:52;5.80;99.90
12959;DHT22;6544;51.666;6.634;2023-02-01T05:13:19;5.80;99.90
12959;DHT22;6544;51.666;6.634;2023-02-01T05:16:03;5.80;99.90
12959;DHT22;6544;51.666;6.634;2023-02-01T05:18:32;5.80;99.90
12959;DHT22;6544;51.666;6.634;2023-02-01T05:20:59;5.80;99.90
12959;DHT22;6544;51.666;6.634;2023-02-01T05:23:26;5.90;99.90
12959;DHT22;6544;51.666;6.634;2023-02-01T05:25:58;5.80;99.90
12959;DHT22;6544;51.666;6.634;2023-02-01T05:28:25;5.70;99.90
12959;DHT22;6544;51.666;6.634;2023-02-01T05:30:52;5.70;99.90
12959;DHT22;6544;51.666;6.634;2023-02-01T05:33:18;5.70;99.90
12959;DHT22;6544;51.666;6.634;2023-02-01T05:35:47;5.70;99.90
12959;DHT22;6544;51.666;6.634;2023-02-01T05:38:14;5.70;99.90
12959;DHT22;6544;51.666;6.634;2023-02-01T05:40:40;5.80;99.90
12959;DHT22;6544;51.666;6.634;2023-02-01T05:43:07;5.70;99.90
12959;DHT22;6544;51.666;6.634;2023-02-01T05:45:34;5.70;99.90
12959;DHT22;6544;51.666;6.634;2023-02-01T05:48:01;5.60;99.90
12959;DHT22;6544;51.666;6.634;2023-02-01T05:50:28;5.70;99.90
12959;DHT22;6544;51.666;6.634;2023-02-01T05:52:56;5.70;99.90
12959;DHT22;6544;51.666;6.634;2023-02-01T05:55:23;5.60;99.90
12959;DHT22;6544;51.666;6.634;2023-02-01T05:57:50;5.60;99.90
12959;DHT22;6544;51.666;6.634;2023-02-01T06:00:17;5.70;99.90
12959;DHT22;6544;51.666;6.634;2023-02-01T06:02:44;5.70;99.90
12959;DHT22;6544;51.666;6.634;2023-02-01T06:05:11;5.60;99.90
12959;DHT22;6544;51.666;6.634;2023-02-01T06:07:38;5.70;99.90
12959;DHT22;6544;51.666;6.634;2023-02-01T06:10:07;5.80;99.90
12959;DHT22;6544;51.666;6.634;2023-02-01T06:12:34;5.70;99.90
12959;DHT22;6544;51.666;6.634;2023-02-01T06:15:01;5.70;99.90
12959;DHT22;6544;51.666;6.634;2023-02-01T06:17:28;5.60;99.90
12959;DHT22;6544;51.666;6.634;2023-02-01T06:19:55;5.60;99.90
12959;DHT22;6544;51.666;6.634;2023-02-01T06:22:22;5.70;99.90
12959;DHT22;6544;51.666;6.634;2023-02-01T06:24:53;5.70;99.90
12959;DHT22;6544;51.666;6.634;2023-02-01T06:27:22;5.80;99.90
12959;DHT22;6544;51.666;6.634;2023-02-01T06:29:49;5.80;99.90
12959;DHT22;6544;51.666;6.634;2023-02-01T06:32:16;5.90;99.90
12959;DHT22;6544;51.666;6.634;2023-02-01T06:34:44;5.80;99.90
12959;DHT22;6544;51.666;6.634;2023-02-01T06:37:13;5.90;99.90
12959;DHT22;6544;51.666;6.634;2023-02-01T06:39:40;5.80;99.90
12959;DHT22;6544;51.666;6.634;2023-02-01T06:42:08;5.90;99.90
12959;DHT22;6544;51.666;6.634;2023-02-01T06:44:37;5.90;99.90
12959;DHT22;6544;51.666;6.634;2023-02-01T06:47:09;5.90;99.90
12959;DHT22;6544;51.666;6.634;2023-02-01T06:49:37;5.90;99.90
12959;DHT22;6544;51.666;6.634;2023-02-01T06:52:04;5.90;99.90
12959;DHT22;6544;51.666;6.634;2023-02-01T06:54:31;5.90;99.90
12959;DHT22;6544;51.666;6.634;2023-02-01T06:56:59;5.90;99.90
12959;DHT22;6544;51.666;6.634;2023-02-01T06:59:26;6.00;99.90
12959;DHT22;6544;51.666;6.634;2023-02-01T07:01:54;5.90;99.90
12959;DHT22;6544;51.666;6.634;2023-02-01T07:04:21;6.00;99.90
12959;DHT22;6544;51.666;6.634;2023-02-01T07:06:48;5.90;99.90
12959;DHT22;6544;51.666;6.634;2023-02-01T07:09:15;6.00;99.90
12959;DHT22;6544;51.666;6.634;2023-02-01T07:11:42;6.00;99.90
12959;DHT22;6544;51.666;6.634;2023-02-01T07:14:09;6.10;99.90
12959;DHT22;6544;51.666;6.634;2023-02-01T07:16:36;6.10;99.90
12959;DHT22;6544;51.666;6.634;2023-02-01T07:19:05;6.00;99.90
12959;DHT22;6544;51.666;6.634;2023-02-01T07:21:32;6.00;99.90
12959;DHT22;6544;51.666;6.634;2023-02-01T07:23:59;6.00;99.90
12959;DHT22;6544;51.666;6.634;2023-02-01T07:26:25;6.00;99.90
12959;DHT22;6544;51.666;6.634;2023-02-01T07:28:52;6.10;99.90
12959;DHT22;6544;51.666;6.634;2023-02-01T07:31:19;6.10;99.90
12959;DHT22;6544;51.666;6.634;2023-02-01T07:33:47;6.10;99.90
12959;DHT22;6544;51.666;6.634;2023-02-01T07:36:18;6.10;99.90
12959;DHT22;6544;51.666;6.634;2023-02-01T07:38:46;6.20;99.90
12959;DHT22;6544;51.666;6.634;2023-02-01T07:41:14;6.10;99.90
12959;DHT22;6544;51.666;6.634;2023-02-01T07:43:41;6.20;99.90
12959;DHT22;6544;51.666;6.634;2023-02-01T07:46:09;6.20;99.90
12959;DHT22;6544;51.666;6.634;2023-02-01T07:48:36;6.10;99.90
12959;DHT22;6544;51.666;6.634;2023-02-01T07:51:05;6.20;99.90
12959;DHT22;6544;51.666;6.634;2023-02-01T07:53:34;6.10;99.90
12959;DHT22;6544;51.666;6.634;2023-02-01T07:56:01;6.20;99.90
12959;DHT22;6544;51.666;6.634;2023-02-01T07:58:28;6.00;99.90
12959;DHT22;6544;51.666;6.634;2023-02-01T08:00:55;6.10;99.90
12959;DHT22;6544;51.666;6.634;2023-02-01T08:03:40;6.10;99.90
12959;DHT22;6544;51.666;6.634;2023-02-01T08:06:07;6.20;99.90
12959;DHT22;6544;51.666;6.634;2023-02-01T08:08:35;6.20;99.90
12959;DHT22;6544;51.666;6.634;2023-02-01T08:11:05;6.20;99.90
12959;DHT22;6544;51.666;6.634;2023-02-01T08:13:33;6.30;99.90
12959;DHT22;6544;51.666;6.634;2023-02-01T08:16:02;6.30;99.90
12959;DHT22;6544;51.666;6.634;2023-02-01T08:18:29;6.40;99.90
12959;DHT22;6544;51.666;6.634;2023-02-01T08:20:56;6.30;99.90
12959;DHT22;6544;51.666;6.634;2023-02-01T08:23:23;6.40;99.90
12959;DHT22;6544;51.666;6.634;2023-02-01T08:25:51;6.40;99.90
12959;DHT22;6544;51.666;6.634;2023-02-01T08:28:18;6.40;99.90
12959;DHT22;6544;51.666;6.634;2023-02-01T08:30:45;6.30;99.90
12959;DHT22;6544;51.666;6.634;2023-02-01T08:33:12;6.30;99.90
12959;DHT22;6544;51.666;6.634;2023-02-01T08:35:39;6.40;99.90
12959;DHT22;6544;51.666;6.634;2023-02-01T08:38:06;6.40;99.90
12959;DHT22;6544;51.666;6.634;2023-02-01T08:40:33;6.30;99.90
12959;DHT22;6544;51.666;6.634;2023-02-01T08:43:01;6.30;99.90
12959;DHT22;6544;51.666;6.634;2023-02-01T08:45:29;6.30;99.90
12959;DHT22;6544;51.666;6.634;2023-02-01T08:47:56;6.40;99.90
12959;DHT22;6544;51.666;6.634;2023-02-01T08:50:24;6.40;99.90
12959;DHT22;6544;51.666;6.634;2023-02-01T08:52:51;6.40;99.90
12959;DHT22;6544;51.666;6.634;2023-02-01T08:55:18;6.50;99.90
12959;DHT22;6544;51.666;6.634;2023-02-01T08:57:45;6.60;99.90
12959;DHT22;6544;51.666;6.634;2023-02-01T09:00:16;6.50;99.90
12959;DHT22;6544;51.666;6.634;2023-02-01T09:02:43;6.40;99.90
12959;DHT22;6544;51.666;6.634;2023-02-01T09:05:10;6.50;99.90
12959;DHT22;6544;51.666;6.634;2023-02-01T09:07:39;6.60;99.90
12959;DHT22;6544;51.666;6.634;2023-02-01T09:10:07;6.60;99.90
12959;DHT22;6544;51.666;6.634;2023-02-01T09:15:12;6.60;99.90
12959;DHT22;6544;51.666;6.634;2023-02-01T09:20:35;6.70;99.90
12959;DHT22;6544;51.666;6.634;2023-02-01T09:25:48;6.70;99.90
12959;DHT22;6544;51.666;6.634;2023-02-01T09:28:32;6.70;99.90
12959;DHT22;6544;51.666;6.634;2023-02-01T09:31:44;6.80;99.90
12959;DHT22;6544;51.666;6.634;2023-02-01T09:34:14;6.80;99.90
12959;DHT22;6544;51.666;6.634;2023-02-01T09:36:45;6.70;99.90
12959;DHT22;6544;51.666;6.634;2023-02-01T09:39:11;6.70;99.90
12959;DHT22;6544;51.666;6.634;2023-02-01T09:41:46;6.80;99.90
12959;DHT22;6544;51.666;6.634;2023-02-01T09:44:44;6.80;99.90
12959;DHT22;6544;51.666;6.634;2023-02-01T09:47:14;6.80;99.90
12959;DHT22;6544;51.666;6.634;2023-02-01T09:49:48;6.90;99.90
12959;DHT22;6544;51.666;6.634;2023-02-01T09:52:25;6.90;99.90
12959;DHT22;6544;51.666;6.634;2023-02-01T09:54:57;7.00;99.90
12959;DHT22;6544;51.666;6.634;2023-02-01T09:57:30;7.00;99.90
12959;DHT22;6544;51.666;6.634;2023-02-01T10:00:03;7.00;99.90
12959;DHT22;6544;51.666;6.634;2023-02-01T10:02:34;7.10;99.90
12959;DHT22;6544;51.666;6.634;2023-02-01T10:05:04;7.00;99.90
12959;DHT22;6544;51.666;6.634;2023-02-01T10:07:38;7.00;99.90
12959;DHT22;6544;51.666;6.634;2023-02-01T10:10:10;7.00;99.90
12959;DHT22;6544;51.666;6.634;2023-02-01T10:12:54;7.00;99.90
12959;DHT22;6544;51.666;6.634;2023-02-01T10:15:32;7.10;59.90
12959;DHT22;6544;51.666;6.634;2023-02-01T10:18:20;7.10;99.90
12959;DHT22;6544;51.666;6.634;2023-02-01T10:20:57;7.20;72.50
12959;DHT22;6544;51.666;6.634;2023-02-01T10:23:48;7.20;80.40
12959;DHT22;6544;51.666;6.634;2023-02-01T10:26:19;7.20;66.10
12959;DHT22;6544;51.666;6.634;2023-02-01T10:28:49;7.20;45.50
12959;DHT22;6544;51.666;6.634;2023-02-01T10:31:17;7.20;6.80
12959;DHT22;6544;51.666;6.634;2023-02-01T10:33:47;7.20;52.30
12959;DHT22;6544;51.666;6.634;2023-02-01T10:36:18;7.20;52.20
12959;DHT22;6544;51.666;6.634;2023-02-01T10:38:48;7.30;27.80
12959;DHT22;6544;51.666;6.634;2023-02-01T10:41:17;7.30;1.80
12959;DHT22;6544;51.666;6.634;2023-02-01T10:43:47;7.30;1.00
12959;DHT22;6544;51.666;6.634;2023-02-01T10:46:14;7.40;1.00
12959;DHT22;6544;51.666;6.634;2023-02-01T10:48:42;7.50;1.00
12959;DHT22;6544;51.666;6.634;2023-02-01T10:51:13;7.60;1.00
12959;DHT22;6544;51.666;6.634;2023-02-01T10:53:44;7.50;1.00
12959;DHT22;6544;51.666;6.634;2023-02-01T10:56:13;7.50;1.00
12959;DHT22;6544;51.666;6.634;2023-02-01T10:58:45;7.50;1.00
12959;DHT22;6544;51.666;6.634;2023-02-01T11:01:17;7.50;1.00
12959;DHT22;6544;51.666;6.634;2023-02-01T11:03:52;7.60;1.00
12959;DHT22;6544;51.666;6.634;2023-02-01T11:06:26;7.50;1.00
12959;DHT22;6544;51.666;6.634;2023-02-01T11:08:54;7.60;1.00
12959;DHT22;6544;51.666;6.634;2023-02-01T11:11:24;7.60;1.00
12959;DHT22;6544;51.666;6.634;2023-02-01T11:13:54;7.60;1.00
12959;DHT22;6544;51.666;6.634;2023-02-01T11:16:21;7.60;1.00
12959;DHT22;6544;51.666;6.634;2023-02-01T11:18:53;7.70;1.00
12959;DHT22;6544;51.666;6.634;2023-02-01T11:21:21;7.70;1.00
12959;DHT22;6544;51.666;6.634;2023-02-01T11:23:48;7.70;1.00
12959;DHT22;6544;51.666;6.634;2023-02-01T11:26:23;7.70;1.00
12959;DHT22;6544;51.666;6.634;2023-02-01T11:28:54;7.70;1.00
12959;DHT22;6544;51.666;6.634;2023-02-01T11:31:24;7.70;1.00
12959;DHT22;6544;51.666;6.634;2023-02-01T11:33:54;7.50;1.00
12959;DHT22;6544;51.666;6.634;2023-02-01T11:36:25;7.40;45.80
12959;DHT22;6544;51.666;6.634;2023-02-01T11:38:54;7.40;99.90
12959;DHT22;6544;51.666;6.634;2023-02-01T11:41:41;7.30;99.90
12959;DHT22;6544;51.666;6.634;2023-02-01T11:44:20;7.30;95.80
12959;DHT22;6544;51.666;6.634;2023-02-01T11:46:48;7.20;99.90
12959;DHT22;6544;51.666;6.634;2023-02-01T11:49:21;7.30;99.90
12959;DHT22;6544;51.666;6.634;2023-02-01T11:52:01;7.20;99.90
12959;DHT22;6544;51.666;6.634;2023-02-01T11:54:40;7.30;94.50
12959;DHT22;6544;51.666;6.634;2023-02-01T11:57:27;7.30;74.60
12959;DHT22;6544;51.666;6.634;2023-02-01T12:00:10;7.40;90.80
12959;DHT22;6544;51.666;6.634;2023-02-01T12:05:50;7.40;6.50
12959;DHT22;6544;51.666;6.634;2023-02-01T12:11:27;7.50;1.00
12959;DHT22;6544;51.666;6.634;2023-02-01T12:14:05;7.50;1.00
12959;DHT22;6544;51.666;6.634;2023-02-01T12:16:39;7.50;1.00
12959;DHT22;6544;51.666;6.634;2023-02-01T12:19:22;7.50;1.00
12959;DHT22;6544;51.666;6.634;2023-02-01T12:22:08;7.50;1.00
12959;DHT22;6544;51.666;6.634;2023-02-01T12:25:03;7.50;1.00
12959;DHT22;6544;51.666;6.634;2023-02-01T12:27:58;7.60;1.00
12959;DHT22;6544;51.666;6.634;2023-02-01T12:30:52;7.50;1.00
12959;DHT22;6544;51.666;6.634;2023-02-01T12:33:30;7.40;12.70
12959;DHT22;6544;51.666;6.634;2023-02-01T12:36:10;7.40;1.00
12959;DHT22;6544;51.666;6.634;2023-02-01T12:38:51;7.40;1.00
12959;DHT22;6544;51.666;6.634;2023-02-01T12:41:27;7.50;17.10
12959;DHT22;6544;51.666;6.634;2023-02-01T12:43:58;7.40;16.00
12959;DHT22;6544;51.666;6.634;2023-02-01T12:46:31;7.40;62.60
12959;DHT22;6544;51.666;6.634;2023-02-01T12:49:02;7.40;34.90
12959;DHT22;6544;51.666;6.634;2023-02-01T12:51:34;7.40;79.20
12959;DHT22;6544;51.666;6.634;2023-02-01T12:54:05;7.50;48.70
12959;DHT22;6544;51.666;6.634;2023-02-01T12:56:37;7.50;60.40
12959;DHT22;6544;51.666;6.634;2023-02-01T12:59:16;7.50;42.70
12959;DHT22;6544;51.666;6.634;2023-02-01T13:01:49;7.50;20.70
12959;DHT22;6544;51.666;6.634;2023-02-01T13:04:26;7.50;17.60
12959;DHT22;6544;51.666;6.634;2023-02-01T13:06:59;7.60;27.90
12959;DHT22;6544;51.666;6.634;2023-02-01T13:09:29;7.60;1.00
12959;DHT22;6544;51.666;6.634;2023-02-01T13:11:59;7.60;7.40
12959;DHT22;6544;51.666;6.634;2023-02-01T13:14:33;7.60;1.00
12959;DHT22;6544;51.666;6.634;2023-02-01T13:17:06;7.60;15.40
12959;DHT22;6544;51.666;6.634;2023-02-01T13:19:44;7.70;1.00
12959;DHT22;6544;51.666;6.634;2023-02-01T13:22:15;7.70;1.00
12959;DHT22;6544;51.666;6.634;2023-02-01T13:24:44;7.80;1.00
12959;DHT22;6544;51.666;6.634;2023-02-01T13:27:13;7.80;1.00
12959;DHT22;6544;51.666;6.634;2023-02-01T13:29:48;7.80;1.00
12959;DHT22;6544;51.666;6.634;2023-02-01T13:32:40;7.80;1.00
12959;DHT22;6544;51.666;6.634;2023-02-01T13:35:32;7.80;1.00
12959;DHT22;6544;51.666;6.634;2023-02-01T13:38:21;7.80;1.00
12959;DHT22;6544;51.666;6.634;2023-02-01T13:41:06;7.80;1.00
12959;DHT22;6544;51.666;6.634;2023-02-01T13:43:38;7.80;1.00
12959;DHT22;6544;51.666;6.634;2023-02-01T13:46:09;7.90;1.00
12959;DHT22;6544;51.666;6.634;2023-02-01T13:48:45;7.90;1.00
12959;DHT22;6544;51.666;6.634;2023-02-01T13:51:13;7.90;1.00
12959;DHT22;6544;51.666;6.634;2023-02-01T13:53:45;7.90;1.00
12959;DHT22;6544;51.666;6.634;2023-02-01T13:56:15;7.90;1.00
12959;DHT22;6544;51.666;6.634;2023-02-01T13:58:44;7.90;1.00
12959;DHT22;6544;51.666;6.634;2023-02-01T14:01:44;8.00;1.00
12959;DHT22;6544;51.666;6.634;2023-02-01T14:04:47;8.00;1.00
12959;DHT22;6544;51.666;6.634;2023-02-01T14:07:19;8.00;1.00
12959;DHT22;6544;51.666;6.634;2023-02-01T14:09:46;8.00;1.00
12959;DHT22;6544;51.666;6.634;2023-02-01T14:12:42;7.90;1.00
12959;DHT22;6544;51.666;6.634;2023-02-01T14:15:22;7.90;1.00
12959;DHT22;6544;51.666;6.634;2023-02-01T14:17:50;8.00;1.00
12959;DHT22;6544;51.666;6.634;2023-02-01T14:20:45;8.00;1.00
12959;DHT22;6544;51.666;6.634;2023-02-01T14:23:25;8.00;1.00
12959;DHT22;6544;51.666;6.634;2023-02-01T14:26:12;8.00;1.00
12959;DHT22;6544;51.666;6.634;2023-02-01T14:28:58;7.90;1.00
12959;DHT22;6544;51.666;6.634;2023-02-01T14:31:42;8.00;1.00
12959;DHT22;6544;51.666;6.634;2023-02-01T14:34:14;8.00;1.00
12959;DHT22;6544;51.666;6.634;2023-02-01T14:36:47;8.00;1.00
12959;DHT22;6544;51.666;6.634;2023-02-01T14:39:29;7.90;1.00
12959;DHT22;6544;51.666;6.634;2023-02-01T14:42:00;7.90;9.50
12959;DHT22;6544;51.666;6.634;2023-02-01T14:44:36;7.80;44.30
12959;DHT22;6544;51.666;6.634;2023-02-01T14:50:27;7.80;24.20
12959;DHT22;6544;51.666;6.634;2023-02-01T14:53:16;7.90;6.50
12959;DHT22;6544;51.666;6.634;2023-02-01T14:55:48;7.90;19.80
12959;DHT22;6544;51.666;6.634;2023-02-01T14:58:23;7.90;26.30
12959;DHT22;6544;51.666;6.634;2023-02-01T15:00:55;7.90;1.00
12959;DHT22;6544;51.666;6.634;2023-02-01T15:03:41;7.80;1.00
12959;DHT22;6544;51.666;6.634;2023-02-01T15:06:23;7.90;1.00
12959;DHT22;6544;51.666;6.634;2023-02-01T15:08:54;7.90;1.00
12959;DHT22;6544;51.666;6.634;2023-02-01T15:11:22;7.90;1.00
12959;DHT22;6544;51.666;6.634;2023-02-01T15:13:50;7.90;1.00
12959;DHT22;6544;51.666;6.634;2023-02-01T15:16:20;7.90;1.00
12959;DHT22;6544;51.666;6.634;2023-02-01T15:18:48;8.00;1.00
12959;DHT22;6544;51.666;6.634;2023-02-01T15:21:17;8.00;1.00
12959;DHT22;6544;51.666;6.634;2023-02-01T15:23:44;8.00;1.00
12959;DHT22;6544;51.666;6.634;2023-02-01T15:26:26;8.00;1.00
12959;DHT22;6544;51.666;6.634;2023-02-01T15:28:53;8.10;1.00
12959;DHT22;6544;51.666;6.634;2023-02-01T15:31:33;8.00;1.00
12959;DHT22;6544;51.666;6.634;2023-02-01T15:34:00;8.00;1.00
12959;DHT22;6544;51.666;6.634;2023-02-01T15:36:27;8.00;1.00
12959;DHT22;6544;51.666;6.634;2023-02-01T15:39:20;8.00;1.00
12959;DHT22;6544;51.666;6.634;2023-02-01T15:41:54;7.90;1.00
12959;DHT22;6544;51.666;6.634;2023-02-01T15:44:37;7.90;1.00
12959;DHT22;6544;51.666;6.634;2023-02-01T15:47:08;7.90;1.00
12959;DHT22;6544;51.666;6.634;2023-02-01T15:49:41;7.90;1.00
12959;DHT22;6544;51.666;6.634;2023-02-01T15:52:21;7.90;1.00
12959;DHT22;6544;51.666;6.634;2023-02-01T15:54:51;7.90;1.00
12959;DHT22;6544;51.666;6.634;2023-02-01T15:57:22;7.90;1.00
12959;DHT22;6544;51.666;6.634;2023-02-01T15:59:57;7.90;1.00
12959;DHT22;6544;51.666;6.634;2023-02-01T16:02:27;7.90;1.00
12959;DHT22;6544;51.666;6.634;2023-02-01T16:04:54;7.90;1.00
12959;DHT22;6544;51.666;6.634;2023-02-01T16:07:26;7.90;1.00
12959;DHT22;6544;51.666;6.634;2023-02-01T16:09:55;7.90;1.00
12959;DHT22;6544;51.666;6.634;2023-02-01T16:12:29;8.00;1.00
12959;DHT22;6544;51.666;6.634;2023-02-01T16:14:56;7.90;18.40
12959;DHT22;6544;51.666;6.634;2023-02-01T16:17:23;7.80;51.00
12959;DHT22;6544;51.666;6.634;2023-02-01T16:19:50;7.80;77.40
12959;DHT22;6544;51.666;6.634;2023-02-01T16:22:17;7.80;99.90
12959;DHT22;6544;51.666;6.634;2023-02-01T16:24:44;7.80;99.90
12959;DHT22;6544;51.666;6.634;2023-02-01T16:27:11;7.80;99.90
12959;DHT22;6544;51.666;6.634;2023-02-01T16:29:40;7.60;99.90
12959;DHT22;6544;51.666;6.634;2023-02-01T16:32:14;7.60;99.90
12959;DHT22;6544;51.666;6.634;2023-02-01T16:34:42;7.70;99.90
12959;DHT22;6544;51.666;6.634;2023-02-01T16:37:12;7.70;99.90
12959;DHT22;6544;51.666;6.634;2023-02-01T16:39:40;7.70;99.90
12959;DHT22;6544;51.666;6.634;2023-02-01T16:42:11;7.70;97.40
12959;DHT22;6544;51.666;6.634;2023-02-01T16:44:40;7.70;99.90
12959;DHT22;6544;51.666;6.634;2023-02-01T16:47:12;7.80;66.20
12959;DHT22;6544;51.666;6.634;2023-02-01T16:49:41;7.80;70.70
12959;DHT22;6544;51.666;6.634;2023-02-01T16:52:13;7.70;74.50
12959;DHT22;6544;51.666;6.634;2023-02-01T16:54:40;7.50;56.80
12959;DHT22;6544;51.666;6.634;2023-02-01T16:57:11;7.10;99.90
12959;DHT22;6544;51.666;6.634;2023-02-01T16:59:40;7.20;99.90
12959;DHT22;6544;51.666;6.634;2023-02-01T17:02:10;7.40;99.90